sensor_id;sensor_type;location;lat;lon;timestamp;temperature;humidity
20732;DHT22;10527;52.124;5.196;2023-04-10T00:01:31;12.00;99.90
20732;DHT22;10527;52.124;5.196;2023-04-10T00:04:04;11.90;99.90
20732;DHT22;10527;52.124;5.196;2023-04-10T00:06:32;12.00;99.90
20732;DHT22;10527;52.124;5.196;2023-04-10T00:08:59;11.90;99.90
20732;DHT22;10527;52.124;5.196;2023-04-10T00:11:26;11.90;99.90
20732;DHT22;10527;52.124;5.196;2023-04-10T00:13:53;11.90;99.90
20732;DHT22;10527;52.124;5.196;2023-04-10T00:16:21;11.90;99.90
20732;DHT22;10527;52.124;5.196;2023-04-10T00:18:47;11.90;99.90
20732;DHT22;10527;52.124;5.196;2023-04-10T00:21:14;11.90;99.90
20732;DHT22;10527;52.124;5.196;2023-04-10T00:23:41;11.80;99.90
20732;DHT22;10527;52.124;5.196;2023-04-10T00:26:08;11.80;99.90
20732;DHT22;10527;52.124;5.196;2023-04-10T00:28:35;11.80;99.90
20732;DHT22;10527;52.124;5.196;2023-04-10T00:31:05;11.90;99.90
20732;DHT22;10527;52.124;5.196;2023-04-10T00:33:31;11.80;99.90
20732;DHT22;10527;52.124;5.196;2023-04-10T00:35:58;11.80;99.90
20732;DHT22;10527;52.124;5.196;2023-04-10T00:38:25;11.80;99.90
20732;DHT22;10527;52.124;5.196;2023-04-10T00:40:54;11.70;99.90
20732;DHT22;10527;52.124;5.196;2023-04-10T00:43:21;11.70;99.90
20732;DHT22;10527;52.124;5.196;2023-04-10T00:45:49;11.70;99.90
20732;DHT22;10527;52.124;5.196;2023-04-10T00:48:16;11.60;99.90
20732;DHT22;10527;52.124;5.196;2023-04-10T00:50:45;11.60;99.90
20732;DHT22;10527;52.124;5.196;2023-04-10T00:53:12;11.60;99.90
20732;DHT22;10527;52.124;5.196;2023-04-10T00:55:41;11.60;99.90
20732;DHT22;10527;52.124;5.196;2023-04-10T00:58:09;11.50;99.90
20732;DHT22;10527;52.124;5.196;2023-04-10T01:00:40;11.50;99.90
20732;DHT22;10527;52.124;5.196;2023-04-10T01:03:10;11.50;99.90
20732;DHT22;10527;52.124;5.196;2023-04-10T01:05:44;11.50;99.90
20732;DHT22;10527;52.124;5.196;2023-04-10T01:08:38;11.40;99.90
20732;DHT22;10527;52.124;5.196;2023-04-10T01:18:00;11.30;99.90
20732;DHT22;10527;52.124;5.196;2023-04-10T01:20:23;11.30;99.90
20732;DHT22;10527;52.124;5.196;2023-04-10T01:26:05;11.30;99.90
20732;DHT22;10527;52.124;5.196;2023-04-10T01:29:00;11.30;99.90
20732;DHT22;10527;52.124;5.196;2023-04-10T01:31:43;11.20;99.90
20732;DHT22;10527;52.124;5.196;2023-04-10T01:34:38;11.20;99.90
20732;DHT22;10527;52.124;5.196;2023-04-10T01:37:16;11.20;99.90
20732;DHT22;10527;52.124;5.196;2023-04-10T01:39:48;11.20;99.90
20732;DHT22;10527;52.124;5.196;2023-04-10T01:42:19;11.20;99.90
20732;DHT22;10527;52.124;5.196;2023-04-10T01:44:49;11.10;99.90
20732;DHT22;10527;52.124;5.196;2023-04-10T01:47:18;11.10;99.90
20732;DHT22;10527;52.124;5.196;2023-04-10T01:49:46;11.20;99.90
20732;DHT22;10527;52.124;5.196;2023-04-10T01:52:16;11.00;99.90
20732;DHT22;10527;52.124;5.196;2023-04-10T01:54:45;11.10;99.90
20732;DHT22;10527;52.124;5.196;2023-04-10T01:57:14;11.10;99.90
20732;DHT22;10527;52.124;5.196;2023-04-10T01:59:43;11.00;99.90
20732;DHT22;10527;52.124;5.196;2023-04-10T02:02:09;11.10;99.90
20732;DHT22;10527;52.124;5.196;2023-04-10T02:04:38;11.00;99.90
20732;DHT22;10527;52.124;5.196;2023-04-10T02:07:13;11.00;99.90
20732;DHT22;10527;52.124;5.196;2023-04-10T02:10:03;10.90;99.90
20732;DHT22;10527;52.124;5.196;2023-04-10T02:12:36;10.90;99.90
20732;DHT22;10527;52.124;5.196;2023-04-10T02:15:09;10.90;99.90
20732;DHT22;10527;52.124;5.196;2023-04-10T02:17:38;10.90;99.90
20732;DHT22;10527;52.124;5.196;2023-04-10T02:20:08;10.90;99.90
20732;DHT22;10527;52.124;5.196;2023-04-10T02:22:36;10.90;99.90
20732;DHT22;10527;52.124;5.196;2023-04-10T02:25:09;10.90;99.90
20732;DHT22;10527;52.124;5.196;2023-04-10T02:27:38;10.80;99.90
20732;DHT22;10527;52.124;5.196;2023-04-10T02:30:05;10.80;99.90
20732;DHT22;10527;52.124;5.196;2023-04-10T02:32:33;10.90;99.90
20732;DHT22;10527;52.124;5.196;2023-04-10T02:35:00;10.90;99.90
20732;DHT22;10527;52.124;5.196;2023-04-10T02:37:30;10.80;99.90
20732;DHT22;10527;52.124;5.196;2023-04-10T02:39:58;10.80;99.90
20732;DHT22;10527;52.124;5.196;2023-04-10T02:42:25;10.80;99.90
20732;DHT22;10527;52.124;5.196;2023-04-10T02:44:51;10.70;99.90
20732;DHT22;10527;52.124;5.196;2023-04-10T02:47:18;10.70;99.90
20732;DHT22;10527;52.124;5.196;2023-04-10T02:49:46;10.70;99.90
20732;DHT22;10527;52.124;5.196;2023-04-10T02:52:14;10.70;99.90
20732;DHT22;10527;52.124;5.196;2023-04-10T02:54:42;10.70;99.90
20732;DHT22;10527;52.124;5.196;2023-04-10T02:57:08;10.60;99.90
20732;DHT22;10527;52.124;5.196;2023-04-10T02:59:35;10.70;99.90
20732;DHT22;10527;52.124;5.196;2023-04-10T03:02:02;10.70;99.90
20732;DHT22;10527;52.124;5.196;2023-04-10T03:04:31;10.70;99.90
20732;DHT22;10527;52.124;5.196;2023-04-10T03:06:58;10.70;99.90
20732;DHT22;10527;52.124;5.196;2023-04-10T03:09:25;10.70;99.90
20732;DHT22;10527;52.124;5.196;2023-04-10T03:11:52;10.60;99.90
20732;DHT22;10527;52.124;5.196;2023-04-10T03:14:19;10.60;99.90
20732;DHT22;10527;52.124;5.196;2023-04-10T03:16:45;10.60;99.90
20732;DHT22;10527;52.124;5.196;2023-04-10T03:19:13;10.60;99.90
20732;DHT22;10527;52.124;5.196;2023-04-10T03:21:40;10.60;99.90
20732;DHT22;10527;52.124;5.196;2023-04-10T03:24:07;10.60;99.90
20732;DHT22;10527;52.124;5.196;2023-04-10T03:26:34;10.60;99.90
20732;DHT22;10527;52.124;5.196;2023-04-10T03:29:01;10.60;99.90
20732;DHT22;10527;52.124;5.196;2023-04-10T03:31:28;10.70;99.90
20732;DHT22;10527;52.124;5.196;2023-04-10T03:33:55;10.60;99.90
20732;DHT22;10527;52.124;5.196;2023-04-10T03:36:22;10.60;99.90
20732;DHT22;10527;52.124;5.196;2023-04-10T03:38:51;10.60;99.90
20732;DHT22;10527;52.124;5.196;2023-04-10T03:41:18;10.50;99.90
20732;DHT22;10527;52.124;5.196;2023-04-10T03:43:45;10.50;99.90
20732;DHT22;10527;52.124;5.196;2023-04-10T03:46:11;10.50;99.90
20732;DHT22;10527;52.124;5.196;2023-04-10T03:48:39;10.50;99.90
20732;DHT22;10527;52.124;5.196;2023-04-10T03:51:10;10.40;99.90
20732;DHT22;10527;52.124;5.196;2023-04-10T03:53:38;10.40;99.90
20732;DHT22;10527;52.124;5.196;2023-04-10T03:56:05;10.50;99.90
20732;DHT22;10527;52.124;5.196;2023-04-10T03:58:32;10.50;99.90
20732;DHT22;10527;52.124;5.196;2023-04-10T04:00:59;10.40;99.90
20732;DHT22;10527;52.124;5.196;2023-04-10T04:03:26;10.40;99.90
20732;DHT22;10527;52.124;5.196;2023-04-10T04:05:53;10.40;99.90
20732;DHT22;10527;52.124;5.196;2023-04-10T04:08:19;10.40;99.90
20732;DHT22;10527;52.124;5.196;2023-04-10T04:10:46;10.30;99.90
20732;DHT22;10527;52.124;5.196;2023-04-10T04:13:13;10.30;99.90
20732;DHT22;10527;52.124;5.196;2023-04-10T04:15:40;10.30;99.90
20732;DHT22;10527;52.124;5.196;2023-04-10T04:18:08;10.30;99.90
20732;DHT22;10527;52.124;5.196;2023-04-10T04:20:35;10.40;99.90
20732;DHT22;10527;52.124;5.196;2023-04-10T04:23:02;10.30;99.90
20732;DHT22;10527;52.124;5.196;2023-04-10T04:25:29;10.30;99.90
20732;DHT22;10527;52.124;5.196;2023-04-10T04:27:56;10.40;99.90
20732;DHT22;10527;52.124;5.196;2023-04-10T04:30:23;10.40;99.90
20732;DHT22;10527;52.124;5.196;2023-04-10T04:32:49;10.30;99.90
20732;DHT22;10527;52.124;5.196;2023-04-10T04:35:16;10.30;99.90
20732;DHT22;10527;52.124;5.196;2023-04-10T04:37:43;10.30;99.90
20732;DHT22;10527;52.124;5.196;2023-04-10T04:40:10;10.20;99.90
20732;DHT22;10527;52.124;5.196;2023-04-10T04:42:37;10.20;99.90
20732;DHT22;10527;52.124;5.196;2023-04-10T04:45:04;10.20;99.90
20732;DHT22;10527;52.124;5.196;2023-04-10T04:47:31;10.20;99.90
20732;DHT22;10527;52.124;5.196;2023-04-10T04:49:58;10.10;99.90
20732;DHT22;10527;52.124;5.196;2023-04-10T04:52:25;10.10;99.90
20732;DHT22;10527;52.124;5.196;2023-04-10T04:54:52;10.10;99.90
20732;DHT22;10527;52.124;5.196;2023-04-10T04:57:19;10.10;99.90
20732;DHT22;10527;52.124;5.196;2023-04-10T04:59:49;10.00;99.90
20732;DHT22;10527;52.124;5.196;2023-04-10T05:02:16;10.10;99.90
20732;DHT22;10527;52.124;5.196;2023-04-10T05:04:47;10.00;99.90
20732;DHT22;10527;52.124;5.196;2023-04-10T05:07:22;10.00;99.90
20732;DHT22;10527;52.124;5.196;2023-04-10T05:09:49;10.00;99.90
20732;DHT22;10527;52.124;5.196;2023-04-10T05:12:16;10.10;99.90
20732;DHT22;10527;52.124;5.196;2023-04-10T05:14:43;10.00;99.90
20732;DHT22;10527;52.124;5.196;2023-04-10T05:17:11;10.00;99.90
20732;DHT22;10527;52.124;5.196;2023-04-10T05:19:40;10.00;99.90
20732;DHT22;10527;52.124;5.196;2023-04-10T05:22:07;10.00;99.90
20732;DHT22;10527;52.124;5.196;2023-04-10T05:24:34;10.00;99.90
20732;DHT22;10527;52.124;5.196;2023-04-10T05:27:01;9.90;99.90
20732;DHT22;10527;52.124;5.196;2023-04-10T05:29:27;9.90;99.90
20732;DHT22;10527;52.124;5.196;2023-04-10T05:31:57;10.10;99.90
20732;DHT22;10527;52.124;5.196;2023-04-10T05:34:24;9.90;99.90
20732;DHT22;10527;52.124;5.196;2023-04-10T05:36:51;10.00;99.90
20732;DHT22;10527;52.124;5.196;2023-04-10T05:39:18;10.00;99.90
20732;DHT22;10527;52.124;5.196;2023-04-10T05:41:45;10.00;99.90
20732;DHT22;10527;52.124;5.196;2023-04-10T05:44:11;10.00;99.90
20732;DHT22;10527;52.124;5.196;2023-04-10T05:46:38;10.00;99.90
20732;DHT22;10527;52.124;5.196;2023-04-10T05:49:07;10.00;99.90
20732;DHT22;10527;52.124;5.196;2023-04-10T05:51:34;10.10;99.90
20732;DHT22;10527;52.124;5.196;2023-04-10T05:54:00;10.10;99.90
20732;DHT22;10527;52.124;5.196;2023-04-10T05:56:27;10.00;99.90
20732;DHT22;10527;52.124;5.196;2023-04-10T05:58:54;10.00;99.90
20732;DHT22;10527;52.124;5.196;2023-04-10T06:01:47;10.10;99.90
20732;DHT22;10527;52.124;5.196;2023-04-10T06:04:20;10.00;99.90
20732;DHT22;10527;52.124;5.196;2023-04-10T06:06:50;10.00;99.90
20732;DHT22;10527;52.124;5.196;2023-04-10T06:12:23;10.10;99.90
20732;DHT22;10527;52.124;5.196;2023-04-10T06:14:49;10.10;99.90
20732;DHT22;10527;52.124;5.196;2023-04-10T06:17:16;10.00;99.90
20732;DHT22;10527;52.124;5.196;2023-04-10T06:19:43;10.10;99.90
20732;DHT22;10527;52.124;5.196;2023-04-10T06:22:10;10.10;99.90
20732;DHT22;10527;52.124;5.196;2023-04-10T06:24:37;10.10;99.90
20732;DHT22;10527;52.124;5.196;2023-04-10T06:27:03;10.10;99.90
20732;DHT22;10527;52.124;5.196;2023-04-10T06:29:30;10.10;99.90
20732;DHT22;10527;52.124;5.196;2023-04-10T06:31:57;10.10;99.90
20732;DHT22;10527;52.124;5.196;2023-04-10T06:34:24;10.00;99.90
20732;DHT22;10527;52.124;5.196;2023-04-10T06:36:51;10.10;99.90
20732;DHT22;10527;52.124;5.196;2023-04-10T06:39:18;10.10;99.90
20732;DHT22;10527;52.124;5.196;2023-04-10T06:41:45;10.20;99.90
20732;DHT22;10527;52.124;5.196;2023-04-10T06:44:12;10.20;99.90
20732;DHT22;10527;52.124;5.196;2023-04-10T06:46:39;10.30;99.90
20732;DHT22;10527;52.124;5.196;2023-04-10T06:49:06;10.30;99.90
20732;DHT22;10527;52.124;5.196;2023-04-10T06:51:33;10.30;99.90
20732;DHT22;10527;52.124;5.196;2023-04-10T06:53:59;10.30;99.90
20732;DHT22;10527;52.124;5.196;2023-04-10T06:56:26;10.30;99.90
20732;DHT22;10527;52.124;5.196;2023-04-10T06:58:54;10.30;99.90
20732;DHT22;10527;52.124;5.196;2023-04-10T07:01:22;10.30;99.90
20732;DHT22;10527;52.124;5.196;2023-04-10T07:03:49;10.30;99.90
20732;DHT22;10527;52.124;5.196;2023-04-10T07:06:19;10.40;99.90
20732;DHT22;10527;52.124;5.196;2023-04-10T07:08:47;10.50;99.90
20732;DHT22;10527;52.124;5.196;2023-04-10T07:11:16;10.50;99.90
20732;DHT22;10527;52.124;5.196;2023-04-10T07:13:43;10.50;99.90
20732;DHT22;10527;52.124;5.196;2023-04-10T07:16:09;10.50;99.90
20732;DHT22;10527;52.124;5.196;2023-04-10T07:18:36;10.60;99.90
20732;DHT22;10527;52.124;5.196;2023-04-10T07:21:11;10.70;99.90
20732;DHT22;10527;52.124;5.196;2023-04-10T07:23:38;10.60;99.90
20732;DHT22;10527;52.124;5.196;2023-04-10T07:26:06;10.70;99.90
20732;DHT22;10527;52.124;5.196;2023-04-10T07:28:33;10.80;99.90
20732;DHT22;10527;52.124;5.196;2023-04-10T07:31:00;10.80;99.90
20732;DHT22;10527;52.124;5.196;2023-04-10T07:33:26;10.90;99.90
20732;DHT22;10527;52.124;5.196;2023-04-10T07:35:53;11.00;99.90
20732;DHT22;10527;52.124;5.196;2023-04-10T07:38:20;11.00;99.90
20732;DHT22;10527;52.124;5.196;2023-04-10T07:40:55;11.10;99.90
20732;DHT22;10527;52.124;5.196;2023-04-10T07:43:23;11.30;99.90
20732;DHT22;10527;52.124;5.196;2023-04-10T07:45:50;11.20;99.90
20732;DHT22;10527;52.124;5.196;2023-04-10T07:48:18;11.30;99.90
20732;DHT22;10527;52.124;5.196;2023-04-10T07:50:45;11.30;99.90
20732;DHT22;10527;52.124;5.196;2023-04-10T07:53:11;11.40;99.90
20732;DHT22;10527;52.124;5.196;2023-04-10T07:55:42;11.50;99.90
20732;DHT22;10527;52.124;5.196;2023-04-10T07:58:10;11.40;99.90
20732;DHT22;10527;52.124;5.196;2023-04-10T08:00:37;11.40;99.90
20732;DHT22;10527;52.124;5.196;2023-04-10T08:03:04;11.50;99.90
20732;DHT22;10527;52.124;5.196;2023-04-10T08:05:34;11.50;99.90
20732;DHT22;10527;52.124;5.196;2023-04-10T08:08:01;11.50;99.90
20732;DHT22;10527;52.124;5.196;2023-04-10T08:10:28;11.60;99.90
20732;DHT22;10527;52.124;5.196;2023-04-10T08:12:55;11.70;99.90
20732;DHT22;10527;52.124;5.196;2023-04-10T08:15:22;11.70;99.90
20732;DHT22;10527;52.124;5.196;2023-04-10T08:17:51;11.80;99.90
20732;DHT22;10527;52.124;5.196;2023-04-10T08:20:19;11.80;99.90
20732;DHT22;10527;52.124;5.196;2023-04-10T08:22:46;12.00;99.90
20732;DHT22;10527;52.124;5.196;2023-04-10T08:25:15;12.00;99.90
20732;DHT22;10527;52.124;5.196;2023-04-10T08:27:42;12.10;99.90
20732;DHT22;10527;52.124;5.196;2023-04-10T08:30:09;12.10;99.90
20732;DHT22;10527;52.124;5.196;2023-04-10T08:32:37;12.00;99.90
20732;DHT22;10527;52.124;5.196;2023-04-10T08:35:05;12.10;99.90
20732;DHT22;10527;52.124;5.196;2023-04-10T08:37:32;12.10;99.90
20732;DHT22;10527;52.124;5.196;2023-04-10T08:39:59;12.10;99.90
20732;DHT22;10527;52.124;5.196;2023-04-10T08:42:25;12.20;99.90
20732;DHT22;10527;52.124;5.196;2023-04-10T08:44:52;12.10;99.90
20732;DHT22;10527;52.124;5.196;2023-04-10T08:47:20;12.10;99.90
20732;DHT22;10527;52.124;5.196;2023-04-10T08:49:56;12.10;99.90
20732;DHT22;10527;52.124;5.196;2023-04-10T08:52:29;12.10;99.90
20732;DHT22;10527;52.124;5.196;2023-04-10T08:55:05;12.10;99.90
20732;DHT22;10527;52.124;5.196;2023-04-10T08:57:36;12.10;99.90
20732;DHT22;10527;52.124;5.196;2023-04-10T09:00:07;12.20;99.90
20732;DHT22;10527;52.124;5.196;2023-04-10T09:02:49;12.30;99.90
20732;DHT22;10527;52.124;5.196;2023-04-10T09:05:21;12.10;99.90
20732;DHT22;10527;52.124;5.196;2023-04-10T09:07:50;12.20;99.90
20732;DHT22;10527;52.124;5.196;2023-04-10T09:10:17;12.20;99.90
20732;DHT22;10527;52.124;5.196;2023-04-10T09:12:45;12.10;99.90
20732;DHT22;10527;52.124;5.196;2023-04-10T09:15:14;12.20;99.90
20732;DHT22;10527;52.124;5.196;2023-04-10T09:18:13;12.10;99.90
20732;DHT22;10527;52.124;5.196;2023-04-10T09:20:41;12.10;99.90
20732;DHT22;10527;52.124;5.196;2023-04-10T09:23:20;12.10;99.90
20732;DHT22;10527;52.124;5.196;2023-04-10T09:25:47;12.20;99.90
20732;DHT22;10527;52.124;5.196;2023-04-10T09:28:16;12.20;99.90
20732;DHT22;10527;52.124;5.196;2023-04-10T09:30:43;12.30;99.90
20732;DHT22;10527;52.124;5.196;2023-04-10T09:33:24;12.40;99.90
20732;DHT22;10527;52.124;5.196;2023-04-10T09:35:57;12.50;99.90
20732;DHT22;10527;52.124;5.196;2023-04-10T09:38:26;12.50;99.90
20732;DHT22;10527;52.124;5.196;2023-04-10T09:41:05;12.50;99.90
20732;DHT22;10527;52.124;5.196;2023-04-10T09:43:41;12.40;99.90
20732;DHT22;10527;52.124;5.196;2023-04-10T09:46:08;12.50;99.90
20732;DHT22;10527;52.124;5.196;2023-04-10T09:48:36;12.60;99.90
20732;DHT22;10527;52.124;5.196;2023-04-10T09:51:32;12.60;99.90
20732;DHT22;10527;52.124;5.196;2023-04-10T09:54:02;12.70;99.90
20732;DHT22;10527;52.124;5.196;2023-04-10T09:56:29;12.80;99.90
20732;DHT22;10527;52.124;5.196;2023-04-10T09:58:58;12.90;99.90
20732;DHT22;10527;52.124;5.196;2023-04-10T10:01:31;12.90;99.90
20732;DHT22;10527;52.124;5.196;2023-04-10T10:04:01;13.00;99.90
20732;DHT22;10527;52.124;5.196;2023-04-10T10:06:30;13.10;99.90
20732;DHT22;10527;52.124;5.196;2023-04-10T10:09:02;13.10;99.90
20732;DHT22;10527;52.124;5.196;2023-04-10T10:11:34;13.10;99.90
20732;DHT22;10527;52.124;5.196;2023-04-10T10:14:14;13.10;99.90
20732;DHT22;10527;52.124;5.196;2023-04-10T10:16:49;13.20;99.90
20732;DHT22;10527;52.124;5.196;2023-04-10T10:19:28;13.20;99.90
20732;DHT22;10527;52.124;5.196;2023-04-10T10:22:00;13.30;99.90
20732;DHT22;10527;52.124;5.196;2023-04-10T10:24:30;13.40;99.90
20732;DHT22;10527;52.124;5.196;2023-04-10T10:26:59;13.40;99.90
20732;DHT22;10527;52.124;5.196;2023-04-10T10:29:32;13.50;99.90
20732;DHT22;10527;52.124;5.196;2023-04-10T10:32:07;13.50;99.90
20732;DHT22;10527;52.124;5.196;2023-04-10T10:34:34;13.50;99.90
20732;DHT22;10527;52.124;5.196;2023-04-10T10:37:03;13.60;99.90
20732;DHT22;10527;52.124;5.196;2023-04-10T10:42:40;13.70;99.90
20732;DHT22;10527;52.124;5.196;2023-04-10T10:45:22;13.80;99.90
20732;DHT22;10527;52.124;5.196;2023-04-10T10:47:56;13.90;99.90
20732;DHT22;10527;52.124;5.196;2023-04-10T10:50:23;14.10;99.90
20732;DHT22;10527;52.124;5.196;2023-04-10T10:52:52;14.20;99.90
20732;DHT22;10527;52.124;5.196;2023-04-10T10:57:58;14.60;99.90
20732;DHT22;10527;52.124;5.196;2023-04-10T11:05:58;14.60;99.90
20732;DHT22;10527;52.124;5.196;2023-04-10T11:10:59;14.70;99.90
20732;DHT22;10527;52.124;5.196;2023-04-10T11:13:28;14.70;99.90
20732;DHT22;10527;52.124;5.196;2023-04-10T11:15:56;14.80;99.90
20732;DHT22;10527;52.124;5.196;2023-04-10T11:21:28;14.90;99.90
20732;DHT22;10527;52.124;5.196;2023-04-10T11:26:37;14.90;99.90
20732;DHT22;10527;52.124;5.196;2023-04-10T11:31:43;15.20;99.90
20732;DHT22;10527;52.124;5.196;2023-04-10T11:34:11;15.30;99.90
20732;DHT22;10527;52.124;5.196;2023-04-10T11:36:42;15.40;99.90
20732;DHT22;10527;52.124;5.196;2023-04-10T11:39:25;15.40;99.90
20732;DHT22;10527;52.124;5.196;2023-04-10T11:41:53;15.30;99.90
20732;DHT22;10527;52.124;5.196;2023-04-10T11:44:28;15.60;99.90
20732;DHT22;10527;52.124;5.196;2023-04-10T11:47:04;15.60;99.90
20732;DHT22;10527;52.124;5.196;2023-04-10T11:49:33;15.70;99.90
20732;DHT22;10527;52.124;5.196;2023-04-10T11:52:00;15.60;99.90
20732;DHT22;10527;52.124;5.196;2023-04-10T11:54:29;15.80;99.90
20732;DHT22;10527;52.124;5.196;2023-04-10T11:57:07;15.80;99.90
20732;DHT22;10527;52.124;5.196;2023-04-10T11:59:35;15.90;99.90
20732;DHT22;10527;52.124;5.196;2023-04-10T12:02:07;15.80;99.90
20732;DHT22;10527;52.124;5.196;2023-04-10T12:04:42;15.90;99.90
20732;DHT22;10527;52.124;5.196;2023-04-10T12:07:10;16.00;99.90
20732;DHT22;10527;52.124;5.196;2023-04-10T12:09:38;16.00;99.90
20732;DHT22;10527;52.124;5.196;2023-04-10T12:12:06;15.90;99.90
20732;DHT22;10527;52.124;5.196;2023-04-10T12:14:34;15.80;99.90
20732;DHT22;10527;52.124;5.196;2023-04-10T12:17:03;15.90;99.90
20732;DHT22;10527;52.124;5.196;2023-04-10T12:19:32;15.80;99.90
20732;DHT22;10527;52.124;5.196;2023-04-10T12:22:00;15.80;99.90
20732;DHT22;10527;52.124;5.196;2023-04-10T12:24:41;15.80;99.90
20732;DHT22;10527;52.124;5.196;2023-04-10T12:27:18;15.70;99.90
20732;DHT22;10527;52.124;5.196;2023-04-10T12:29:46;15.70;99.90
20732;DHT22;10527;52.124;5.196;2023-04-10T12:32:20;15.70;99.90
20732;DHT22;10527;52.124;5.196;2023-04-10T12:34:52;15.70;99.90
20732;DHT22;10527;52.124;5.196;2023-04-10T12:37:24;15.70;99.90
20732;DHT22;10527;52.124;5.196;2023-04-10T12:39:51;15.50;99.90
20732;DHT22;10527;52.124;5.196;2023-04-10T12:42:39;15.50;99.90
20732;DHT22;10527;52.124;5.196;2023-04-10T12:45:08;15.50;99.90
20732;DHT22;10527;52.124;5.196;2023-04-10T12:47:48;15.50;99.90
20732;DHT22;10527;52.124;5.196;2023-04-10T12:50:18;15.50;99.90
20732;DHT22;10527;52.124;5.196;2023-04-10T12:53:02;15.40;99.90
20732;DHT22;10527;52.124;5.196;2023-04-10T12:55:34;15.50;99.90
20732;DHT22;10527;52.124;5.196;2023-04-10T12:58:18;15.50;99.90
20732;DHT22;10527;52.124;5.196;2023-04-10T13:00:48;15.50;99.90
20732;DHT22;10527;52.124;5.196;2023-04-10T13:03:15;15.40;99.90
20732;DHT22;10527;52.124;5.196;2023-04-10T13:05:43;15.40;99.90
20732;DHT22;10527;52.124;5.196;2023-04-10T13:08:10;15.40;99.90
20732;DHT22;10527;52.124;5.196;2023-04-10T13:10:37;15.40;99.90
20732;DHT22;10527;52.124;5.196;2023-04-10T13:13:04;15.40;99.90
20732;DHT22;10527;52.124;5.196;2023-04-10T13:15:33;15.40;99.90
20732;DHT22;10527;52.124;5.196;2023-04-10T13:18:00;15.40;99.90
20732;DHT22;10527;52.124;5.196;2023-04-10T13:20:30;15.40;99.90
20732;DHT22;10527;52.124;5.196;2023-04-10T13:22:57;15.30;99.90
20732;DHT22;10527;52.124;5.196;2023-04-10T13:25:24;15.40;99.90
20732;DHT22;10527;52.124;5.196;2023-04-10T13:27:53;15.30;99.90
20732;DHT22;10527;52.124;5.196;2023-04-10T13:30:20;15.30;99.90
20732;DHT22;10527;52.124;5.196;2023-04-10T13:32:46;15.20;99.90
20732;DHT22;10527;52.124;5.196;2023-04-10T13:35:13;15.10;99.90
20732;DHT22;10527;52.124;5.196;2023-04-10T13:37:40;15.10;99.90
20732;DHT22;10527;52.124;5.196;2023-04-10T13:40:07;15.10;99.90
20732;DHT22;10527;52.124;5.196;2023-04-10T13:42:35;15.00;99.90
20732;DHT22;10527;52.124;5.196;2023-04-10T13:45:06;14.90;99.90
20732;DHT22;10527;52.124;5.196;2023-04-10T13:47:33;14.90;99.90
20732;DHT22;10527;52.124;5.196;2023-04-10T13:50:00;14.80;99.90
20732;DHT22;10527;52.124;5.196;2023-04-10T13:52:27;14.80;99.90
20732;DHT22;10527;52.124;5.196;2023-04-10T13:54:53;14.70;99.90
20732;DHT22;10527;52.124;5.196;2023-04-10T13:57:20;14.70;99.90
20732;DHT22;10527;52.124;5.196;2023-04-10T13:59:47;14.60;99.90
20732;DHT22;10527;52.124;5.196;2023-04-10T14:02:14;14.60;99.90
20732;DHT22;10527;52.124;5.196;2023-04-10T14:04:41;14.60;99.90
20732;DHT22;10527;52.124;5.196;2023-04-10T14:07:08;14.50;99.90
20732;DHT22;10527;52.124;5.196;2023-04-10T14:09:35;14.50;99.90
20732;DHT22;10527;52.124;5.196;2023-04-10T14:12:02;14.50;99.90
20732;DHT22;10527;52.124;5.196;2023-04-10T14:14:29;14.40;99.90
20732;DHT22;10527;52.124;5.196;2023-04-10T14:16:56;14.40;99.90
20732;DHT22;10527;52.124;5.196;2023-04-10T14:19:23;14.30;99.90
20732;DHT22;10527;52.124;5.196;2023-04-10T14:21:50;14.30;99.90
20732;DHT22;10527;52.124;5.196;2023-04-10T14:24:16;14.30;99.90
20732;DHT22;10527;52.124;5.196;2023-04-10T14:26:43;14.20;99.90
20732;DHT22;10527;52.124;5.196;2023-04-10T14:29:10;14.10;99.90
20732;DHT22;10527;52.124;5.196;2023-04-10T14:31:37;14.10;99.90
20732;DHT22;10527;52.124;5.196;2023-04-10T14:34:17;14.10;99.90
20732;DHT22;10527;52.124;5.196;2023-04-10T14:36:47;14.00;99.90
20732;DHT22;10527;52.124;5.196;2023-04-10T14:39:14;14.00;99.90
20732;DHT22;10527;52.124;5.196;2023-04-10T14:41:41;14.00;99.90
20732;DHT22;10527;52.124;5.196;2023-04-10T14:44:07;14.00;99.90
20732;DHT22;10527;52.124;5.196;2023-04-10T14:46:34;14.00;99.90
20732;DHT22;10527;52.124;5.196;2023-04-10T14:49:01;13.80;99.90
20732;DHT22;10527;52.124;5.196;2023-04-10T14:51:28;13.70;99.90
20732;DHT22;10527;52.124;5.196;2023-04-10T14:53:56;13.70;99.90
20732;DHT22;10527;52.124;5.196;2023-04-10T14:56:23;13.50;99.90
20732;DHT22;10527;52.124;5.196;2023-04-10T14:58:50;13.50;99.90
20732;DHT22;10527;52.124;5.196;2023-04-10T15:01:16;13.50;99.90
20732;DHT22;10527;52.124;5.196;2023-04-10T15:03:46;13.20;99.90
20732;DHT22;10527;52.124;5.196;2023-04-10T15:06:14;13.20;99.90
20732;DHT22;10527;52.124;5.196;2023-04-10T15:08:41;13.20;99.90
20732;DHT22;10527;52.124;5.196;2023-04-10T15:11:09;13.20;99.90
20732;DHT22;10527;52.124;5.196;2023-04-10T15:13:36;13.20;99.90
20732;DHT22;10527;52.124;5.196;2023-04-10T15:16:05;13.20;99.90
20732;DHT22;10527;52.124;5.196;2023-04-10T15:18:33;13.20;99.90
20732;DHT22;10527;52.124;5.196;2023-04-10T15:21:00;13.10;99.90
20732;DHT22;10527;52.124;5.196;2023-04-10T15:23:27;13.20;99.90
20732;DHT22;10527;52.124;5.196;2023-04-10T15:25:53;13.30;99.90
20732;DHT22;10527;52.124;5.196;2023-04-10T15:28:20;13.20;99.90
20732;DHT22;10527;52.124;5.196;2023-04-10T15:30:47;13.30;99.90
20732;DHT22;10527;52.124;5.196;2023-04-10T15:33:16;13.20;99.90
20732;DHT22;10527;52.124;5.196;2023-04-10T15:35:47;13.20;99.90
20732;DHT22;10527;52.124;5.196;2023-04-10T15:38:17;13.20;99.90
20732;DHT22;10527;52.124;5.196;2023-04-10T15:40:44;13.30;99.90
20732;DHT22;10527;52.124;5.196;2023-04-10T15:43:11;13.20;99.90
20732;DHT22;10527;52.124;5.196;2023-04-10T15:45:38;13.20;99.90
20732;DHT22;10527;52.124;5.196;2023-04-10T15:48:05;13.20;99.90
20732;DHT22;10527;52.124;5.196;2023-04-10T15:50:32;13.20;99.90
20732;DHT22;10527;52.124;5.196;2023-04-10T15:53:00;13.20;99.90
20732;DHT22;10527;52.124;5.196;2023-04-10T15:55:27;13.10;99.90
20732;DHT22;10527;52.124;5.196;2023-04-10T15:57:54;13.10;99.90
20732;DHT22;10527;52.124;5.196;2023-04-10T16:00:23;13.10;99.90
20732;DHT22;10527;52.124;5.196;2023-04-10T16:02:51;13.00;99.90
20732;DHT22;10527;52.124;5.196;2023-04-10T16:05:18;13.00;99.90
20732;DHT22;10527;52.124;5.196;2023-04-10T16:07:44;12.90;99.90
20732;DHT22;10527;52.124;5.196;2023-04-10T16:10:11;12.90;99.90
20732;DHT22;10527;52.124;5.196;2023-04-10T16:12:39;12.70;99.90
20732;DHT22;10527;52.124;5.196;2023-04-10T16:15:07;12.70;99.90
20732;DHT22;10527;52.124;5.196;2023-04-10T16:17:34;12.60;99.90